sensor_id;sensor_type;location;lat;lon;timestamp;P1;durP1;ratioP1;P2;durP2;ratioP2
7213;SDS011;3648;50.614;13.830;2023-05-07T00:01:54;7.77;;;6.50;;
7213;SDS011;3648;50.614;13.830;2023-05-07T00:04:22;7.63;;;5.93;;
7213;SDS011;3648;50.614;13.830;2023-05-07T00:06:49;6.83;;;5.37;;
7213;SDS011;3648;50.614;13.830;2023-05-07T00:09:16;6.57;;;5.87;;
7213;SDS011;3648;50.614;13.830;2023-05-07T00:11:44;6.07;;;5.47;;
7213;SDS011;3648;50.614;13.830;2023-05-07T00:14:11;5.83;;;4.90;;
7213;SDS011;3648;50.614;13.830;2023-05-07T00:16:38;5.90;;;5.30;;
7213;SDS011;3648;50.614;13.830;2023-05-07T00:19:05;5.77;;;4.77;;
7213;SDS011;3648;50.614;13.830;2023-05-07T00:21:32;6.27;;;5.17;;
7213;SDS011;3648;50.614;13.830;2023-05-07T00:23:59;4.83;;;4.33;;
7213;SDS011;3648;50.614;13.830;2023-05-07T00:26:26;5.87;;;4.80;;
7213;SDS011;3648;50.614;13.830;2023-05-07T00:28:54;4.97;;;4.23;;
7213;SDS011;3648;50.614;13.830;2023-05-07T00:31:21;6.77;;;5.47;;
7213;SDS011;3648;50.614;13.830;2023-05-07T00:33:48;5.43;;;4.67;;
7213;SDS011;3648;50.614;13.830;2023-05-07T00:36:15;5.83;;;4.63;;
7213;SDS011;3648;50.614;13.830;2023-05-07T00:38:42;4.50;;;4.10;;
7213;SDS011;3648;50.614;13.830;2023-05-07T00:41:09;4.67;;;4.10;;
7213;SDS011;3648;50.614;13.830;2023-05-07T00:43:36;5.67;;;4.70;;
7213;SDS011;3648;50.614;13.830;2023-05-07T00:46:06;5.80;;;4.83;;
7213;SDS011;3648;50.614;13.830;2023-05-07T00:48:33;5.83;;;5.07;;
7213;SDS011;3648;50.614;13.830;2023-05-07T00:51:00;5.93;;;4.30;;
7213;SDS011;3648;50.614;13.830;2023-05-07T00:53:27;5.13;;;4.63;;
7213;SDS011;3648;50.614;13.830;2023-05-07T00:55:55;5.90;;;5.00;;
7213;SDS011;3648;50.614;13.830;2023-05-07T00:58:23;5.37;;;4.70;;
7213;SDS011;3648;50.614;13.830;2023-05-07T01:00:50;6.00;;;5.27;;
7213;SDS011;3648;50.614;13.830;2023-05-07T01:03:18;6.37;;;4.73;;
7213;SDS011;3648;50.614;13.830;2023-05-07T01:05:46;5.87;;;5.03;;
7213;SDS011;3648;50.614;13.830;2023-05-07T01:08:15;6.03;;;4.83;;
7213;SDS011;3648;50.614;13.830;2023-05-07T01:10:44;5.73;;;5.00;;
7213;SDS011;3648;50.614;13.830;2023-05-07T01:13:12;5.80;;;4.77;;
7213;SDS011;3648;50.614;13.830;2023-05-07T01:15:40;6.30;;;5.53;;
7213;SDS011;3648;50.614;13.830;2023-05-07T01:18:07;5.47;;;4.63;;
7213;SDS011;3648;50.614;13.830;2023-05-07T01:20:35;6.27;;;5.67;;
7213;SDS011;3648;50.614;13.830;2023-05-07T01:23:04;5.97;;;4.80;;
7213;SDS011;3648;50.614;13.830;2023-05-07T01:25:33;5.63;;;4.70;;
7213;SDS011;3648;50.614;13.830;2023-05-07T01:28:00;5.93;;;5.23;;
7213;SDS011;3648;50.614;13.830;2023-05-07T01:30:27;5.63;;;4.87;;
7213;SDS011;3648;50.614;13.830;2023-05-07T01:32:56;4.57;;;4.03;;
7213;SDS011;3648;50.614;13.830;2023-05-07T01:35:29;4.00;;;3.63;;
7213;SDS011;3648;50.614;13.830;2023-05-07T01:37:58;3.97;;;3.57;;
7213;SDS011;3648;50.614;13.830;2023-05-07T01:40:27;4.50;;;4.10;;
7213;SDS011;3648;50.614;13.830;2023-05-07T01:42:55;4.67;;;3.80;;
7213;SDS011;3648;50.614;13.830;2023-05-07T01:45:22;4.30;;;3.87;;
7213;SDS011;3648;50.614;13.830;2023-05-07T01:47:49;4.10;;;3.70;;
7213;SDS011;3648;50.614;13.830;2023-05-07T01:50:18;5.07;;;4.30;;
7213;SDS011;3648;50.614;13.830;2023-05-07T01:52:46;4.93;;;4.20;;
7213;SDS011;3648;50.614;13.830;2023-05-07T01:55:13;4.40;;;4.00;;
7213;SDS011;3648;50.614;13.830;2023-05-07T01:57:42;4.93;;;4.17;;
7213;SDS011;3648;50.614;13.830;2023-05-07T02:00:09;4.67;;;4.23;;
7213;SDS011;3648;50.614;13.830;2023-05-07T02:02:36;5.03;;;4.30;;
7213;SDS011;3648;50.614;13.830;2023-05-07T02:05:04;5.23;;;4.37;;
7213;SDS011;3648;50.614;13.830;2023-05-07T02:07:32;4.47;;;4.07;;
7213;SDS011;3648;50.614;13.830;2023-05-07T02:09:58;4.87;;;4.37;;
7213;SDS011;3648;50.614;13.830;2023-05-07T02:12:25;4.50;;;4.10;;
7213;SDS011;3648;50.614;13.830;2023-05-07T02:14:54;5.60;;;4.37;;
7213;SDS011;3648;50.614;13.830;2023-05-07T02:17:21;5.17;;;4.30;;
7213;SDS011;3648;50.614;13.830;2023-05-07T02:19:48;5.37;;;4.87;;
7213;SDS011;3648;50.614;13.830;2023-05-07T02:22:15;4.30;;;3.90;;
7213;SDS011;3648;50.614;13.830;2023-05-07T02:24:42;4.83;;;4.13;;
7213;SDS011;3648;50.614;13.830;2023-05-07T02:27:09;5.37;;;4.37;;
7213;SDS011;3648;50.614;13.830;2023-05-07T02:29:36;4.43;;;4.03;;
7213;SDS011;3648;50.614;13.830;2023-05-07T02:32:05;4.83;;;4.30;;
7213;SDS011;3648;50.614;13.830;2023-05-07T02:34:32;5.53;;;4.93;;
7213;SDS011;3648;50.614;13.830;2023-05-07T02:36:59;4.83;;;4.33;;
7213;SDS011;3648;50.614;13.830;2023-05-07T02:39:26;5.73;;;5.10;;
7213;SDS011;3648;50.614;13.830;2023-05-07T02:41:53;6.13;;;5.17;;
7213;SDS011;3648;50.614;13.830;2023-05-07T02:44:20;5.33;;;4.70;;
7213;SDS011;3648;50.614;13.830;2023-05-07T02:46:47;5.07;;;4.50;;
7213;SDS011;3648;50.614;13.830;2023-05-07T02:49:15;5.93;;;5.33;;
7213;SDS011;3648;50.614;13.830;2023-05-07T02:51:42;5.17;;;4.67;;
7213;SDS011;3648;50.614;13.830;2023-05-07T02:54:09;5.90;;;5.23;;
7213;SDS011;3648;50.614;13.830;2023-05-07T02:56:36;5.03;;;4.63;;
7213;SDS011;3648;50.614;13.830;2023-05-07T02:59:03;5.77;;;5.17;;
7213;SDS011;3648;50.614;13.830;2023-05-07T03:01:30;4.87;;;4.37;;
7213;SDS011;3648;50.614;13.830;2023-05-07T03:03:57;6.40;;;5.50;;
7213;SDS011;3648;50.614;13.830;2023-05-07T03:06:25;6.90;;;5.60;;
7213;SDS011;3648;50.614;13.830;2023-05-07T03:08:52;5.60;;;5.00;;
7213;SDS011;3648;50.614;13.830;2023-05-07T03:11:19;5.20;;;4.70;;
7213;SDS011;3648;50.614;13.830;2023-05-07T03:13:46;5.63;;;5.07;;
7213;SDS011;3648;50.614;13.830;2023-05-07T03:16:15;6.10;;;5.27;;
7213;SDS011;3648;50.614;13.830;2023-05-07T03:18:42;5.97;;;5.37;;
7213;SDS011;3648;50.614;13.830;2023-05-07T03:21:09;5.90;;;5.30;;
7213;SDS011;3648;50.614;13.830;2023-05-07T03:23:37;5.70;;;5.07;;
7213;SDS011;3648;50.614;13.830;2023-05-07T03:26:05;4.73;;;4.33;;
7213;SDS011;3648;50.614;13.830;2023-05-07T03:28:32;5.27;;;4.77;;
7213;SDS011;3648;50.614;13.830;2023-05-07T03:30:59;5.07;;;4.50;;
7213;SDS011;3648;50.614;13.830;2023-05-07T03:33:26;4.83;;;4.33;;
7213;SDS011;3648;50.614;13.830;2023-05-07T03:35:53;5.20;;;4.70;;
7213;SDS011;3648;50.614;13.830;2023-05-07T03:38:20;5.33;;;4.60;;
7213;SDS011;3648;50.614;13.830;2023-05-07T03:40:48;5.90;;;5.17;;
7213;SDS011;3648;50.614;13.830;2023-05-07T03:43:16;5.43;;;4.70;;
7213;SDS011;3648;50.614;13.830;2023-05-07T03:45:43;6.10;;;5.30;;
7213;SDS011;3648;50.614;13.830;2023-05-07T03:48:10;6.27;;;5.67;;
7213;SDS011;3648;50.614;13.830;2023-05-07T03:50:37;6.00;;;5.13;;
7213;SDS011;3648;50.614;13.830;2023-05-07T03:53:04;6.37;;;5.77;;
7213;SDS011;3648;50.614;13.830;2023-05-07T03:55:31;5.67;;;5.03;;
7213;SDS011;3648;50.614;13.830;2023-05-07T03:57:59;7.23;;;5.60;;
7213;SDS011;3648;50.614;13.830;2023-05-07T04:00:26;6.87;;;5.67;;
7213;SDS011;3648;50.614;13.830;2023-05-07T04:02:53;6.17;;;5.57;;
7213;SDS011;3648;50.614;13.830;2023-05-07T04:05:20;6.60;;;5.73;;
7213;SDS011;3648;50.614;13.830;2023-05-07T04:07:47;6.83;;;5.57;;
7213;SDS011;3648;50.614;13.830;2023-05-07T04:10:14;6.33;;;5.67;;
7213;SDS011;3648;50.614;13.830;2023-05-07T04:12:41;5.87;;;5.03;;
7213;SDS011;3648;50.614;13.830;2023-05-07T04:15:10;6.57;;;5.40;;
7213;SDS011;3648;50.614;13.830;2023-05-07T04:17:37;7.10;;;5.77;;
7213;SDS011;3648;50.614;13.830;2023-05-07T04:20:04;6.00;;;5.40;;
7213;SDS011;3648;50.614;13.830;2023-05-07T04:22:32;5.80;;;5.10;;
7213;SDS011;3648;50.614;13.830;2023-05-07T04:24:59;6.63;;;5.93;;
7213;SDS011;3648;50.614;13.830;2023-05-07T04:27:27;6.50;;;5.80;;
7213;SDS011;3648;50.614;13.830;2023-05-07T04:29:54;7.43;;;5.33;;
7213;SDS011;3648;50.614;13.830;2023-05-07T04:32:23;6.07;;;5.30;;
7213;SDS011;3648;50.614;13.830;2023-05-07T04:34:51;6.10;;;5.50;;
7213;SDS011;3648;50.614;13.830;2023-05-07T04:37:18;6.30;;;5.70;;
7213;SDS011;3648;50.614;13.830;2023-05-07T04:39:45;7.00;;;6.30;;
7213;SDS011;3648;50.614;13.830;2023-05-07T04:42:14;6.53;;;5.83;;
7213;SDS011;3648;50.614;13.830;2023-05-07T04:44:41;5.53;;;5.03;;
7213;SDS011;3648;50.614;13.830;2023-05-07T04:47:08;5.77;;;5.17;;
7213;SDS011;3648;50.614;13.830;2023-05-07T04:49:36;5.83;;;5.23;;
7213;SDS011;3648;50.614;13.830;2023-05-07T04:52:04;5.63;;;5.03;;
7213;SDS011;3648;50.614;13.830;2023-05-07T04:54:31;6.63;;;4.93;;
7213;SDS011;3648;50.614;13.830;2023-05-07T04:56:59;5.13;;;4.57;;
7213;SDS011;3648;50.614;13.830;2023-05-07T04:59:26;5.50;;;5.00;;
7213;SDS011;3648;50.614;13.830;2023-05-07T05:01:53;5.20;;;4.47;;
7213;SDS011;3648;50.614;13.830;2023-05-07T05:04:20;5.20;;;4.23;;
7213;SDS011;3648;50.614;13.830;2023-05-07T05:06:48;5.30;;;4.60;;
7213;SDS011;3648;50.614;13.830;2023-05-07T05:09:15;4.87;;;4.23;;
7213;SDS011;3648;50.614;13.830;2023-05-07T05:11:42;4.80;;;4.30;;
7213;SDS011;3648;50.614;13.830;2023-05-07T05:14:09;4.80;;;4.30;;
7213;SDS011;3648;50.614;13.830;2023-05-07T05:16:36;5.00;;;3.97;;
7213;SDS011;3648;50.614;13.830;2023-05-07T05:19:03;3.80;;;3.50;;
7213;SDS011;3648;50.614;13.830;2023-05-07T05:21:30;4.20;;;3.47;;
7213;SDS011;3648;50.614;13.830;2023-05-07T05:23:59;3.53;;;3.23;;
7213;SDS011;3648;50.614;13.830;2023-05-07T05:26:26;3.57;;;3.27;;
7213;SDS011;3648;50.614;13.830;2023-05-07T05:28:53;3.80;;;3.43;;
7213;SDS011;3648;50.614;13.830;2023-05-07T05:31:20;4.30;;;3.40;;
7213;SDS011;3648;50.614;13.830;2023-05-07T05:33:47;4.23;;;3.60;;
7213;SDS011;3648;50.614;13.830;2023-05-07T05:36:14;3.67;;;3.37;;
7213;SDS011;3648;50.614;13.830;2023-05-07T05:38:41;4.27;;;3.87;;
7213;SDS011;3648;50.614;13.830;2023-05-07T05:41:10;4.33;;;3.93;;
7213;SDS011;3648;50.614;13.830;2023-05-07T05:43:37;4.50;;;3.70;;
7213;SDS011;3648;50.614;13.830;2023-05-07T05:46:04;3.50;;;3.20;;
7213;SDS011;3648;50.614;13.830;2023-05-07T05:48:31;3.37;;;3.07;;
7213;SDS011;3648;50.614;13.830;2023-05-07T05:50:58;3.30;;;3.00;;
7213;SDS011;3648;50.614;13.830;2023-05-07T05:53:25;3.07;;;2.77;;
7213;SDS011;3648;50.614;13.830;2023-05-07T05:55:52;2.50;;;2.30;;
7213;SDS011;3648;50.614;13.830;2023-05-07T05:58:20;3.00;;;2.80;;
7213;SDS011;3648;50.614;13.830;2023-05-07T06:00:47;3.33;;;3.03;;
7213;SDS011;3648;50.614;13.830;2023-05-07T06:03:17;2.80;;;2.60;;
7213;SDS011;3648;50.614;13.830;2023-05-07T06:05:44;2.87;;;2.60;;
7213;SDS011;3648;50.614;13.830;2023-05-07T06:08:11;2.70;;;2.50;;
7213;SDS011;3648;50.614;13.830;2023-05-07T06:10:39;2.43;;;2.23;;
7213;SDS011;3648;50.614;13.830;2023-05-07T06:13:07;3.30;;;2.63;;
7213;SDS011;3648;50.614;13.830;2023-05-07T06:15:36;2.40;;;2.20;;
7213;SDS011;3648;50.614;13.830;2023-05-07T06:18:03;2.37;;;2.10;;
7213;SDS011;3648;50.614;13.830;2023-05-07T06:20:30;2.60;;;2.13;;
7213;SDS011;3648;50.614;13.830;2023-05-07T06:22:57;2.30;;;2.10;;
7213;SDS011;3648;50.614;13.830;2023-05-07T06:25:24;2.30;;;2.10;;
7213;SDS011;3648;50.614;13.830;2023-05-07T06:27:51;2.33;;;2.13;;
7213;SDS011;3648;50.614;13.830;2023-05-07T06:30:18;2.77;;;2.50;;
7213;SDS011;3648;50.614;13.830;2023-05-07T06:32:47;2.43;;;2.07;;
7213;SDS011;3648;50.614;13.830;2023-05-07T06:35:14;2.80;;;2.57;;
7213;SDS011;3648;50.614;13.830;2023-05-07T06:37:41;2.10;;;1.90;;
7213;SDS011;3648;50.614;13.830;2023-05-07T06:40:09;2.40;;;2.20;;
7213;SDS011;3648;50.614;13.830;2023-05-07T06:42:36;2.13;;;1.93;;
7213;SDS011;3648;50.614;13.830;2023-05-07T06:45:04;2.20;;;2.00;;
7213;SDS011;3648;50.614;13.830;2023-05-07T06:47:32;2.43;;;2.20;;
7213;SDS011;3648;50.614;13.830;2023-05-07T06:50:01;2.07;;;1.87;;
7213;SDS011;3648;50.614;13.830;2023-05-07T06:52:28;2.00;;;1.90;;
7213;SDS011;3648;50.614;13.830;2023-05-07T06:54:55;3.33;;;2.10;;
7213;SDS011;3648;50.614;13.830;2023-05-07T06:57:23;2.80;;;2.20;;
7213;SDS011;3648;50.614;13.830;2023-05-07T06:59:50;2.50;;;2.30;;
7213;SDS011;3648;50.614;13.830;2023-05-07T07:02:17;2.87;;;2.67;;
7213;SDS011;3648;50.614;13.830;2023-05-07T07:04:44;2.80;;;2.60;;
7213;SDS011;3648;50.614;13.830;2023-05-07T07:07:13;2.57;;;2.33;;
7213;SDS011;3648;50.614;13.830;2023-05-07T07:09:40;2.37;;;2.17;;
7213;SDS011;3648;50.614;13.830;2023-05-07T07:12:07;2.50;;;2.30;;
7213;SDS011;3648;50.614;13.830;2023-05-07T07:14:34;1.90;;;1.80;;
7213;SDS011;3648;50.614;13.830;2023-05-07T07:17:01;2.77;;;2.50;;
7213;SDS011;3648;50.614;13.830;2023-05-07T07:19:30;1.90;;;1.77;;
7213;SDS011;3648;50.614;13.830;2023-05-07T07:21:57;2.13;;;1.93;;
7213;SDS011;3648;50.614;13.830;2023-05-07T07:24:26;2.40;;;2.20;;
7213;SDS011;3648;50.614;13.830;2023-05-07T07:26:53;2.60;;;2.40;;
7213;SDS011;3648;50.614;13.830;2023-05-07T07:29:20;3.40;;;2.30;;
7213;SDS011;3648;50.614;13.830;2023-05-07T07:31:47;3.03;;;2.60;;
7213;SDS011;3648;50.614;13.830;2023-05-07T07:34:15;2.73;;;2.37;;
7213;SDS011;3648;50.614;13.830;2023-05-07T07:36:42;3.33;;;2.27;;
7213;SDS011;3648;50.614;13.830;2023-05-07T07:39:09;2.17;;;1.90;;
7213;SDS011;3648;50.614;13.830;2023-05-07T07:41:37;2.30;;;2.10;;
7213;SDS011;3648;50.614;13.830;2023-05-07T07:44:05;2.60;;;2.40;;
7213;SDS011;3648;50.614;13.830;2023-05-07T07:46:32;2.67;;;2.47;;
7213;SDS011;3648;50.614;13.830;2023-05-07T07:48:59;2.67;;;2.43;;
7213;SDS011;3648;50.614;13.830;2023-05-07T07:51:26;2.83;;;2.60;;
7213;SDS011;3648;50.614;13.830;2023-05-07T07:53:53;2.87;;;2.57;;
7213;SDS011;3648;50.614;13.830;2023-05-07T07:56:22;3.37;;;3.07;;
7213;SDS011;3648;50.614;13.830;2023-05-07T07:58:51;3.43;;;2.67;;
7213;SDS011;3648;50.614;13.830;2023-05-07T08:01:18;2.73;;;2.53;;
7213;SDS011;3648;50.614;13.830;2023-05-07T08:03:45;2.70;;;2.50;;
7213;SDS011;3648;50.614;13.830;2023-05-07T08:06:12;3.53;;;3.00;;
7213;SDS011;3648;50.614;13.830;2023-05-07T08:08:39;3.43;;;2.70;;
7213;SDS011;3648;50.614;13.830;2023-05-07T08:11:07;3.03;;;2.73;;
7213;SDS011;3648;50.614;13.830;2023-05-07T08:13:34;3.07;;;2.60;;
7213;SDS011;3648;50.614;13.830;2023-05-07T08:16:03;3.07;;;2.77;;
7213;SDS011;3648;50.614;13.830;2023-05-07T08:18:30;3.07;;;2.80;;
7213;SDS011;3648;50.614;13.830;2023-05-07T08:20:57;3.40;;;3.10;;
7213;SDS011;3648;50.614;13.830;2023-05-07T08:23:24;3.20;;;2.90;;
7213;SDS011;3648;50.614;13.830;2023-05-07T08:25:51;3.27;;;2.97;;
7213;SDS011;3648;50.614;13.830;2023-05-07T08:28:18;2.90;;;2.70;;
7213;SDS011;3648;50.614;13.830;2023-05-07T08:30:46;3.10;;;2.73;;
7213;SDS011;3648;50.614;13.830;2023-05-07T08:33:14;2.97;;;2.70;;
7213;SDS011;3648;50.614;13.830;2023-05-07T08:35:41;2.90;;;2.70;;
7213;SDS011;3648;50.614;13.830;2023-05-07T08:38:09;3.33;;;3.03;;
7213;SDS011;3648;50.614;13.830;2023-05-07T08:40:36;3.03;;;2.67;;
7213;SDS011;3648;50.614;13.830;2023-05-07T08:43:05;3.10;;;2.90;;
7213;SDS011;3648;50.614;13.830;2023-05-07T08:45:34;4.33;;;3.10;;
7213;SDS011;3648;50.614;13.830;2023-05-07T08:48:02;3.47;;;2.97;;
7213;SDS011;3648;50.614;13.830;2023-05-07T08:50:44;3.43;;;3.13;;
7213;SDS011;3648;50.614;13.830;2023-05-07T08:53:11;3.33;;;2.90;;
7213;SDS011;3648;50.614;13.830;2023-05-07T08:55:38;3.03;;;2.80;;
7213;SDS011;3648;50.614;13.830;2023-05-07T08:58:06;3.23;;;2.93;;
7213;SDS011;3648;50.614;13.830;2023-05-07T09:00:33;3.70;;;3.40;;
7213;SDS011;3648;50.614;13.830;2023-05-07T09:03:02;3.23;;;2.93;;
7213;SDS011;3648;50.614;13.830;2023-05-07T09:05:29;4.30;;;3.17;;
7213;SDS011;3648;50.614;13.830;2023-05-07T09:08:00;3.93;;;3.63;;
7213;SDS011;3648;50.614;13.830;2023-05-07T09:10:28;3.50;;;3.20;;
7213;SDS011;3648;50.614;13.830;2023-05-07T09:12:56;4.10;;;3.80;;
7213;SDS011;3648;50.614;13.830;2023-05-07T09:15:23;3.80;;;3.50;;
7213;SDS011;3648;50.614;13.830;2023-05-07T09:17:50;4.00;;;3.60;;
7213;SDS011;3648;50.614;13.830;2023-05-07T09:20:17;4.53;;;4.13;;
7213;SDS011;3648;50.614;13.830;2023-05-07T09:22:44;3.97;;;3.57;;
7213;SDS011;3648;50.614;13.830;2023-05-07T09:25:13;3.87;;;3.57;;
7213;SDS011;3648;50.614;13.830;2023-05-07T09:27:40;4.60;;;4.20;;
7213;SDS011;3648;50.614;13.830;2023-05-07T09:30:08;4.40;;;4.00;;
7213;SDS011;3648;50.614;13.830;2023-05-07T09:32:36;4.40;;;4.00;;
7213;SDS011;3648;50.614;13.830;2023-05-07T09:35:04;4.70;;;4.20;;
7213;SDS011;3648;50.614;13.830;2023-05-07T09:37:32;4.77;;;4.37;;
7213;SDS011;3648;50.614;13.830;2023-05-07T09:39:59;4.03;;;3.73;;
7213;SDS011;3648;50.614;13.830;2023-05-07T09:42:27;3.83;;;3.53;;
7213;SDS011;3648;50.614;13.830;2023-05-07T09:44:55;4.03;;;3.73;;
7213;SDS011;3648;50.614;13.830;2023-05-07T09:47:23;4.07;;;3.70;;
7213;SDS011;3648;50.614;13.830;2023-05-07T09:49:53;4.23;;;3.93;;
7213;SDS011;3648;50.614;13.830;2023-05-07T09:52:23;4.00;;;3.70;;
7213;SDS011;3648;50.614;13.830;2023-05-07T09:54:53;3.37;;;3.07;;
7213;SDS011;3648;50.614;13.830;2023-05-07T09:57:24;3.77;;;3.47;;
7213;SDS011;3648;50.614;13.830;2023-05-07T09:59:53;3.47;;;3.20;;
7213;SDS011;3648;50.614;13.830;2023-05-07T10:02:22;4.27;;;3.77;;
7213;SDS011;3648;50.614;13.830;2023-05-07T10:04:51;3.83;;;3.53;;
7213;SDS011;3648;50.614;13.830;2023-05-07T10:07:20;3.37;;;3.07;;
7213;SDS011;3648;50.614;13.830;2023-05-07T10:09:48;3.33;;;3.00;;
7213;SDS011;3648;50.614;13.830;2023-05-07T10:12:15;2.90;;;2.70;;
7213;SDS011;3648;50.614;13.830;2023-05-07T10:14:43;3.50;;;3.20;;
7213;SDS011;3648;50.614;13.830;2023-05-07T10:17:14;3.33;;;3.03;;
7213;SDS011;3648;50.614;13.830;2023-05-07T10:19:43;3.20;;;2.90;;
7213;SDS011;3648;50.614;13.830;2023-05-07T10:22:11;2.90;;;2.70;;
7213;SDS011;3648;50.614;13.830;2023-05-07T10:24:40;3.33;;;3.03;;
7213;SDS011;3648;50.614;13.830;2023-05-07T10:27:09;3.43;;;3.13;;
7213;SDS011;3648;50.614;13.830;2023-05-07T10:29:42;3.47;;;3.20;;
7213;SDS011;3648;50.614;13.830;2023-05-07T10:32:24;3.27;;;2.90;;
7213;SDS011;3648;50.614;13.830;2023-05-07T10:35:03;3.53;;;3.23;;
7213;SDS011;3648;50.614;13.830;2023-05-07T10:37:36;3.00;;;2.80;;
7213;SDS011;3648;50.614;13.830;2023-05-07T10:40:04;3.10;;;2.90;;
7213;SDS011;3648;50.614;13.830;2023-05-07T10:42:32;3.67;;;3.37;;
7213;SDS011;3648;50.614;13.830;2023-05-07T10:45:11;4.07;;;3.67;;
7213;SDS011;3648;50.614;13.830;2023-05-07T10:50:35;3.27;;;3.07;;
7213;SDS011;3648;50.614;13.830;2023-05-07T10:53:21;3.83;;;3.53;;
7213;SDS011;3648;50.614;13.830;2023-05-07T10:58:51;3.67;;;3.37;;
7213;SDS011;3648;50.614;13.830;2023-05-07T11:01:31;3.60;;;3.30;;
7213;SDS011;3648;50.614;13.830;2023-05-07T11:04:17;3.40;;;3.10;;
7213;SDS011;3648;50.614;13.830;2023-05-07T11:10:02;3.73;;;3.43;;
7213;SDS011;3648;50.614;13.830;2023-05-07T11:18:20;3.27;;;2.97;;
7213;SDS011;3648;50.614;13.830;2023-05-07T11:20:52;3.63;;;3.33;;
7213;SDS011;3648;50.614;13.830;2023-05-07T11:26:41;3.70;;;3.40;;
7213;SDS011;3648;50.614;13.830;2023-05-07T11:29:10;4.03;;;3.50;;
7213;SDS011;3648;50.614;13.830;2023-05-07T11:31:38;3.83;;;3.53;;
7213;SDS011;3648;50.614;13.830;2023-05-07T11:34:05;3.67;;;3.37;;
7213;SDS011;3648;50.614;13.830;2023-05-07T11:36:35;3.67;;;3.37;;
7213;SDS011;3648;50.614;13.830;2023-05-07T11:41:52;3.27;;;2.97;;
7213;SDS011;3648;50.614;13.830;2023-05-07T11:44:19;2.90;;;2.70;;
7213;SDS011;3648;50.614;13.830;2023-05-07T11:46:46;3.67;;;3.37;;
7213;SDS011;3648;50.614;13.830;2023-05-07T11:49:16;4.10;;;3.80;;
7213;SDS011;3648;50.614;13.830;2023-05-07T11:51:45;3.43;;;3.13;;
7213;SDS011;3648;50.614;13.830;2023-05-07T11:54:15;3.97;;;3.67;;
7213;SDS011;3648;50.614;13.830;2023-05-07T11:56:43;4.23;;;3.83;;
7213;SDS011;3648;50.614;13.830;2023-05-07T11:59:11;3.93;;;3.53;;
7213;SDS011;3648;50.614;13.830;2023-05-07T12:01:44;3.40;;;3.10;;
7213;SDS011;3648;50.614;13.830;2023-05-07T12:04:12;3.50;;;3.20;;
7213;SDS011;3648;50.614;13.830;2023-05-07T12:06:39;3.47;;;3.17;;
7213;SDS011;3648;50.614;13.830;2023-05-07T12:09:08;3.60;;;3.30;;
7213;SDS011;3648;50.614;13.830;2023-05-07T12:11:36;3.10;;;2.90;;
7213;SDS011;3648;50.614;13.830;2023-05-07T12:14:06;3.57;;;3.27;;
7213;SDS011;3648;50.614;13.830;2023-05-07T12:16:33;3.20;;;3.00;;
7213;SDS011;3648;50.614;13.830;2023-05-07T12:19:01;3.97;;;3.67;;
7213;SDS011;3648;50.614;13.830;2023-05-07T12:21:28;3.27;;;2.97;;
7213;SDS011;3648;50.614;13.830;2023-05-07T12:23:56;3.67;;;3.40;;
7213;SDS011;3648;50.614;13.830;2023-05-07T12:26:25;3.63;;;3.33;;
7213;SDS011;3648;50.614;13.830;2023-05-07T12:28:52;3.37;;;3.07;;
7213;SDS011;3648;50.614;13.830;2023-05-07T12:31:19;3.37;;;3.07;;
7213;SDS011;3648;50.614;13.830;2023-05-07T12:33:46;3.43;;;3.13;;
7213;SDS011;3648;50.614;13.830;2023-05-07T12:36:13;3.40;;;3.10;;
7213;SDS011;3648;50.614;13.830;2023-05-07T12:38:40;3.17;;;2.97;;
7213;SDS011;3648;50.614;13.830;2023-05-07T12:41:08;3.70;;;3.40;;
7213;SDS011;3648;50.614;13.830;2023-05-07T12:43:38;3.40;;;3.10;;
7213;SDS011;3648;50.614;13.830;2023-05-07T12:46:06;3.03;;;2.83;;
7213;SDS011;3648;50.614;13.830;2023-05-07T12:48:35;3.90;;;3.60;;
7213;SDS011;3648;50.614;13.830;2023-05-07T12:51:03;3.53;;;3.23;;
7213;SDS011;3648;50.614;13.830;2023-05-07T12:53:32;3.97;;;3.57;;
7213;SDS011;3648;50.614;13.830;2023-05-07T12:56:01;4.10;;;3.70;;
7213;SDS011;3648;50.614;13.830;2023-05-07T12:58:29;3.00;;;2.80;;
7213;SDS011;3648;50.614;13.830;2023-05-07T13:00:59;3.47;;;3.17;;
7213;SDS011;3648;50.614;13.830;2023-05-07T13:03:28;3.40;;;3.10;;
7213;SDS011;3648;50.614;13.830;2023-05-07T13:05:57;3.40;;;3.10;;
7213;SDS011;3648;50.614;13.830;2023-05-07T13:08:28;3.40;;;3.10;;
7213;SDS011;3648;50.614;13.830;2023-05-07T13:10:57;3.57;;;3.27;;
7213;SDS011;3648;50.614;13.830;2023-05-07T13:13:25;4.00;;;3.60;;
7213;SDS011;3648;50.614;13.830;2023-05-07T13:15:52;3.50;;;3.20;;
7213;SDS011;3648;50.614;13.830;2023-05-07T13:18:20;3.37;;;3.07;;
7213;SDS011;3648;50.614;13.830;2023-05-07T13:20:47;3.03;;;2.83;;
7213;SDS011;3648;50.614;13.830;2023-05-07T13:23:14;3.30;;;3.00;;
7213;SDS011;3648;50.614;13.830;2023-05-07T13:25:41;3.70;;;3.40;;
7213;SDS011;3648;50.614;13.830;2023-05-07T13:28:08;3.27;;;3.07;;
7213;SDS011;3648;50.614;13.830;2023-05-07T13:30:35;3.53;;;3.23;;
7213;SDS011;3648;50.614;13.830;2023-05-07T13:33:02;3.70;;;3.40;;
7213;SDS011;3648;50.614;13.830;2023-05-07T13:35:31;3.57;;;3.27;;
7213;SDS011;3648;50.614;13.830;2023-05-07T13:37:58;3.57;;;3.27;;
7213;SDS011;3648;50.614;13.830;2023-05-07T13:40:25;3.83;;;3.53;;
7213;SDS011;3648;50.614;13.830;2023-05-07T13:42:52;3.60;;;3.30;;
7213;SDS011;3648;50.614;13.830;2023-05-07T13:45:20;3.37;;;3.07;;
7213;SDS011;3648;50.614;13.830;2023-05-07T13:47:50;3.83;;;3.53;;
7213;SDS011;3648;50.614;13.830;2023-05-07T13:50:17;3.50;;;3.20;;
7213;SDS011;3648;50.614;13.830;2023-05-07T13:52:46;4.30;;;3.90;;
7213;SDS011;3648;50.614;13.830;2023-05-07T13:55:15;4.23;;;3.53;;
7213;SDS011;3648;50.614;13.830;2023-05-07T13:57:43;4.00;;;3.63;;
7213;SDS011;3648;50.614;13.830;2023-05-07T14:00:11;4.27;;;3.87;;
7213;SDS011;3648;50.614;13.830;2023-05-07T14:02:39;4.03;;;3.63;;
7213;SDS011;3648;50.614;13.830;2023-05-07T14:05:06;4.90;;;4.40;;
7213;SDS011;3648;50.614;13.830;2023-05-07T14:07:34;4.47;;;4.07;;
7213;SDS011;3648;50.614;13.830;2023-05-07T14:10:03;4.37;;;4.07;;
7213;SDS011;3648;50.614;13.830;2023-05-07T14:12:31;4.57;;;4.17;;
7213;SDS011;3648;50.614;13.830;2023-05-07T14:14:58;5.33;;;4.83;;
7213;SDS011;3648;50.614;13.830;2023-05-07T14:17:25;4.83;;;4.43;;
7213;SDS011;3648;50.614;13.830;2023-05-07T14:19:52;5.40;;;4.83;;
7213;SDS011;3648;50.614;13.830;2023-05-07T14:22:20;4.93;;;4.53;;
7213;SDS011;3648;50.614;13.830;2023-05-07T14:24:47;4.90;;;4.50;;
7213;SDS011;3648;50.614;13.830;2023-05-07T14:27:16;5.47;;;4.97;;
7213;SDS011;3648;50.614;13.830;2023-05-07T14:29:43;4.70;;;4.30;;
7213;SDS011;3648;50.614;13.830;2023-05-07T14:32:10;5.20;;;4.70;;
7213;SDS011;3648;50.614;13.830;2023-05-07T14:34:38;4.80;;;4.40;;
7213;SDS011;3648;50.614;13.830;2023-05-07T14:37:05;5.40;;;4.90;;
7213;SDS011;3648;50.614;13.830;2023-05-07T14:39:32;5.47;;;4.90;;
7213;SDS011;3648;50.614;13.830;2023-05-07T14:41:59;4.83;;;4.33;;
7213;SDS011;3648;50.614;13.830;2023-05-07T14:44:27;4.93;;;4.43;;
7213;SDS011;3648;50.614;13.830;2023-05-07T14:46:56;5.27;;;4.77;;
7213;SDS011;3648;50.614;13.830;2023-05-07T14:49:23;5.10;;;4.70;;
7213;SDS011;3648;50.614;13.830;2023-05-07T14:51:50;5.50;;;5.00;;
7213;SDS011;3648;50.614;13.830;2023-05-07T14:54:17;4.57;;;4.17;;
7213;SDS011;3648;50.614;13.830;2023-05-07T14:56:44;5.23;;;4.73;;
7213;SDS011;3648;50.614;13.830;2023-05-07T14:59:11;5.07;;;4.57;;
7213;SDS011;3648;50.614;13.830;2023-05-07T15:01:40;5.00;;;4.60;;
7213;SDS011;3648;50.614;13.830;2023-05-07T15:04:10;4.70;;;4.30;;
7213;SDS011;3648;50.614;13.830;2023-05-07T15:06:38;5.40;;;4.90;;
7213;SDS011;3648;50.614;13.830;2023-05-07T15:09:05;5.67;;;4.93;;
7213;SDS011;3648;50.614;13.830;2023-05-07T15:11:33;5.30;;;4.67;;
7213;SDS011;3648;50.614;13.830;2023-05-07T15:14:00;5.20;;;4.70;;
7213;SDS011;3648;50.614;13.830;2023-05-07T15:16:27;5.00;;;4.60;;
7213;SDS011;3648;50.614;13.830;2023-05-07T15:18:55;4.87;;;4.47;;
7213;SDS011;3648;50.614;13.830;2023-05-07T15:21:22;5.03;;;4.53;;
7213;SDS011;3648;50.614;13.830;2023-05-07T15:23:49;4.67;;;4.27;;
7213;SDS011;3648;50.614;13.830;2023-05-07T15:26:16;4.60;;;4.30;;